DLH7EL LIPZ-EDDF
Flight info
| Callsign | DLH7EL |
|---|---|
| Flight time | 1h 0m |
| Altitude | 30000 |
| Route | ROKIB DCT NAXAV DCT UNIMI L12 MOGTI Q163 ETASA T163 SPESA SPESA5B |
| Aircraft | A321/M-SDE2E3FGIJ1LORWXYZ/HB1 |
Departure
| Time | 2026-05-04 13:20 |
|---|---|
| Airport | Venice Marco Polo Airport (LIPZ) |
Arrival
| Time | 2026-05-04 14:20 |
|---|---|
| Airport | Frankfurt Main Airport (EDDF) |
| Time | Latitude | Longitude | Altitude | Speed | Heading |
|---|---|---|---|---|---|
| 2026-05-04 12:11 | 45.50552 | 12.34224 | 16 ft | 0 kts | 267° |
| 2026-05-04 13:08 | 45.50553 | 12.34254 | 43 ft | 4 kts | 267° |
| 2026-05-04 13:08 | 45.50554 | 12.34285 | 15 ft | 4 kts | 263° |
| 2026-05-04 13:08 | 45.50561 | 12.34320 | 18 ft | 4 kts | 229° |
| 2026-05-04 13:08 | 45.50581 | 12.34337 | 18 ft | 3 kts | 178° |
| 2026-05-04 13:09 | 45.50572 | 12.34337 | 16 ft | 4 kts | 177° |
| 2026-05-04 13:09 | 45.50548 | 12.34339 | 15 ft | 1 kts | 177° |
| 2026-05-04 13:11 | 45.50542 | 12.34339 | 15 ft | 3 kts | 177° |
| 2026-05-04 13:11 | 45.50499 | 12.34342 | 16 ft | 9 kts | 178° |
| 2026-05-04 13:12 | 45.50429 | 12.34346 | 16 ft | 11 kts | 178° |
| 2026-05-04 13:12 | 45.50342 | 12.34351 | 16 ft | 14 kts | 178° |
| 2026-05-04 13:12 | 45.50244 | 12.34357 | 16 ft | 15 kts | 177° |
| 2026-05-04 13:12 | 45.50135 | 12.34343 | 15 ft | 17 kts | 207° |
| 2026-05-04 13:13 | 45.50038 | 12.34227 | 14 ft | 20 kts | 222° |
| 2026-05-04 13:13 | 45.49930 | 12.34088 | 14 ft | 22 kts | 222° |
| 2026-05-04 13:13 | 45.49816 | 12.33941 | 14 ft | 23 kts | 222° |
| 2026-05-04 13:13 | 45.49696 | 12.33788 | 16 ft | 23 kts | 222° |
| 2026-05-04 13:14 | 45.49602 | 12.33667 | 16 ft | 14 kts | 222° |
| 2026-05-04 13:14 | 45.49527 | 12.33601 | 17 ft | 12 kts | 179° |
| 2026-05-04 13:14 | 45.49512 | 12.33607 | 18 ft | 0 kts | 158° |
| 2026-05-04 13:18 | 45.49499 | 12.33618 | 16 ft | 6 kts | 145° |
| 2026-05-04 13:18 | 45.49454 | 12.33685 | 16 ft | 11 kts | 133° |
| 2026-05-04 13:18 | 45.49416 | 12.33772 | 15 ft | 8 kts | 75° |
| 2026-05-04 13:18 | 45.49440 | 12.33809 | 15 ft | 1 kts | 41° |
| 2026-05-04 13:19 | 45.49457 | 12.33830 | 15 ft | 13 kts | 41° |
| 2026-05-04 13:19 | 45.49731 | 12.34183 | 14 ft | 92 kts | 42° |
| 2026-05-04 13:19 | 45.50375 | 12.35012 | 13 ft | 155 kts | 42° |
| 2026-05-04 13:19 | 45.51273 | 12.36164 | 316 ft | 179 kts | 45° |
| 2026-05-04 13:20 | 45.52190 | 12.37360 | 1059 ft | 180 kts | 44° |
| 2026-05-04 13:20 | 45.53061 | 12.38703 | 1536 ft | 194 kts | 60° |
| 2026-05-04 13:20 | 45.53499 | 12.40605 | 1891 ft | 210 kts | 85° |
| 2026-05-04 13:20 | 45.53453 | 12.42690 | 2471 ft | 212 kts | 99° |
| 2026-05-04 13:21 | 45.53236 | 12.44788 | 3106 ft | 214 kts | 99° |
| 2026-05-04 13:21 | 45.53015 | 12.46901 | 3729 ft | 217 kts | 99° |
| 2026-05-04 13:21 | 45.52792 | 12.49052 | 4320 ft | 221 kts | 100° |
| 2026-05-04 13:21 | 45.52301 | 12.51116 | 4918 ft | 222 kts | 125° |
| 2026-05-04 13:22 | 45.51169 | 12.52557 | 5517 ft | 219 kts | 156° |
| 2026-05-04 13:22 | 45.49700 | 12.52959 | 6124 ft | 216 kts | 187° |
| 2026-05-04 13:22 | 45.48262 | 12.52387 | 6719 ft | 216 kts | 203° |
| 2026-05-04 13:22 | 45.46998 | 12.51266 | 7290 ft | 216 kts | 227° |
| 2026-05-04 13:23 | 45.46310 | 12.49372 | 7850 ft | 222 kts | 257° |
| 2026-05-04 13:23 | 45.46433 | 12.47091 | 8056 ft | 247 kts | 284° |
| 2026-05-04 13:23 | 45.46992 | 12.44640 | 8323 ft | 271 kts | 286° |
| 2026-05-04 13:23 | 45.47586 | 12.42040 | 8987 ft | 279 kts | 285° |
| 2026-05-04 13:24 | 45.48179 | 12.39390 | 9773 ft | 283 kts | 285° |
| 2026-05-04 13:24 | 45.48774 | 12.36688 | 10404 ft | 293 kts | 285° |
| 2026-05-04 13:24 | 45.49394 | 12.33843 | 10602 ft | 316 kts | 285° |
| 2026-05-04 13:25 | 45.50749 | 12.27601 | 11627 ft | 337 kts | 285° |
| 2026-05-04 13:25 | 45.51446 | 12.24385 | 12347 ft | 342 kts | 285° |
| 2026-05-04 13:25 | 45.52157 | 12.21125 | 13044 ft | 347 kts | 285° |
| 2026-05-04 13:25 | 45.52877 | 12.17823 | 13708 ft | 351 kts | 285° |
| 2026-05-04 13:26 | 45.53611 | 12.14475 | 14312 ft | 356 kts | 285° |
| 2026-05-04 13:26 | 45.54352 | 12.11086 | 14912 ft | 359 kts | 284° |
| 2026-05-04 13:26 | 45.55093 | 12.07665 | 15530 ft | 362 kts | 284° |
| 2026-05-04 13:26 | 45.55843 | 12.04217 | 16183 ft | 365 kts | 285° |
| 2026-05-04 13:27 | 45.56598 | 12.00745 | 16830 ft | 368 kts | 286° |
| 2026-05-04 13:27 | 45.57625 | 11.97376 | 17450 ft | 374 kts | 297° |
| 2026-05-04 13:27 | 45.59162 | 11.94349 | 18058 ft | 380 kts | 310° |
| 2026-05-04 13:27 | 45.61155 | 11.91823 | 18626 ft | 387 kts | 323° |
| 2026-05-04 13:28 | 45.63506 | 11.89914 | 19164 ft | 391 kts | 332° |
| 2026-05-04 13:28 | 45.65976 | 11.88248 | 19717 ft | 394 kts | 333° |
| 2026-05-04 13:28 | 45.68459 | 11.86561 | 20279 ft | 397 kts | 332° |
| 2026-05-04 13:28 | 45.70956 | 11.84847 | 20803 ft | 399 kts | 332° |
| 2026-05-04 13:29 | 45.73470 | 11.83124 | 21354 ft | 402 kts | 332° |
| 2026-05-04 13:29 | 45.75993 | 11.81377 | 21910 ft | 404 kts | 332° |
| 2026-05-04 13:29 | 45.78533 | 11.79622 | 22457 ft | 407 kts | 332° |
| 2026-05-04 13:29 | 45.81095 | 11.77853 | 23003 ft | 410 kts | 332° |
| 2026-05-04 13:30 | 45.83667 | 11.76065 | 23552 ft | 412 kts | 332° |
| 2026-05-04 13:30 | 45.86256 | 11.74261 | 23990 ft | 415 kts | 332° |
| 2026-05-04 13:30 | 45.88828 | 11.72476 | 24427 ft | 418 kts | 332° |
| 2026-05-04 13:30 | 45.91460 | 11.70670 | 24846 ft | 420 kts | 332° |
| 2026-05-04 13:31 | 45.94101 | 11.68845 | 25241 ft | 423 kts | 332° |
| 2026-05-04 13:31 | 45.96762 | 11.67005 | 25629 ft | 425 kts | 332° |
| 2026-05-04 13:31 | 45.99427 | 11.65147 | 26000 ft | 427 kts | 332° |
| 2026-05-04 13:31 | 46.02105 | 11.63284 | 26371 ft | 429 kts | 332° |
| 2026-05-04 13:32 | 46.04803 | 11.61410 | 26813 ft | 431 kts | 332° |
| 2026-05-04 13:32 | 46.07507 | 11.59530 | 27242 ft | 433 kts | 332° |
| 2026-05-04 13:32 | 46.10230 | 11.57632 | 27614 ft | 436 kts | 332° |
| 2026-05-04 13:32 | 46.12965 | 11.55717 | 27995 ft | 439 kts | 332° |
| 2026-05-04 13:33 | 46.15719 | 11.53788 | 28367 ft | 441 kts | 331° |
| 2026-05-04 13:33 | 46.18489 | 11.51856 | 28743 ft | 444 kts | 332° |
| 2026-05-04 13:33 | 46.21272 | 11.49909 | 29102 ft | 446 kts | 331° |
| 2026-05-04 13:33 | 46.24071 | 11.47944 | 29437 ft | 448 kts | 331° |
| 2026-05-04 13:34 | 46.26884 | 11.45980 | 29797 ft | 450 kts | 331° |
| 2026-05-04 13:34 | 46.29677 | 11.44016 | 30043 ft | 438 kts | 331° |
| 2026-05-04 13:34 | 46.35044 | 11.40252 | 30072 ft | 424 kts | 331° |
| 2026-05-04 13:35 | 46.42979 | 11.34647 | 30027 ft | 422 kts | 331° |
| 2026-05-04 13:36 | 46.48282 | 11.30979 | 30029 ft | 424 kts | 333° |
| 2026-05-04 13:36 | 46.53691 | 11.27538 | 30030 ft | 425 kts | 333° |
| 2026-05-04 13:37 | 46.59089 | 11.24046 | 30049 ft | 425 kts | 333° |
| 2026-05-04 13:37 | 46.64493 | 11.20565 | 30063 ft | 425 kts | 333° |
| 2026-05-04 13:38 | 46.69892 | 11.17058 | 30059 ft | 425 kts | 333° |
| 2026-05-04 13:38 | 46.75290 | 11.13557 | 30058 ft | 424 kts | 333° |
| 2026-05-04 13:39 | 46.80676 | 11.10049 | 30052 ft | 424 kts | 333° |
| 2026-05-04 13:39 | 46.85154 | 11.07117 | 30057 ft | 424 kts | 333° |
| 2026-05-04 13:40 | 46.90531 | 11.03537 | 30057 ft | 424 kts | 333° |
| 2026-05-04 13:40 | 46.96771 | 10.99371 | 30030 ft | 425 kts | 334° |
| 2026-05-04 13:41 | 47.01295 | 10.96424 | 30039 ft | 425 kts | 333° |
| 2026-05-04 13:41 | 47.06661 | 10.92929 | 30007 ft | 425 kts | 333° |
| 2026-05-04 13:42 | 47.14773 | 10.87616 | 30022 ft | 426 kts | 333° |
| 2026-05-04 13:42 | 47.20181 | 10.84073 | 30026 ft | 425 kts | 334° |
| 2026-05-04 13:43 | 47.25569 | 10.80507 | 30039 ft | 425 kts | 333° |
| 2026-05-04 13:43 | 47.30962 | 10.76940 | 30019 ft | 425 kts | 333° |
| 2026-05-04 13:44 | 47.36353 | 10.73368 | 30004 ft | 425 kts | 333° |
| 2026-05-04 13:44 | 47.41799 | 10.69958 | 30007 ft | 426 kts | 336° |
| 2026-05-04 13:45 | 47.47327 | 10.66764 | 30010 ft | 426 kts | 335° |
| 2026-05-04 13:45 | 47.52843 | 10.63559 | 30011 ft | 426 kts | 335° |
| 2026-05-04 13:46 | 47.58351 | 10.60328 | 30000 ft | 426 kts | 335° |
| 2026-05-04 13:46 | 47.63864 | 10.57093 | 29999 ft | 426 kts | 335° |
| 2026-05-04 13:47 | 47.69375 | 10.53848 | 30006 ft | 426 kts | 335° |
| 2026-05-04 13:47 | 47.74886 | 10.50606 | 30014 ft | 426 kts | 335° |
| 2026-05-04 13:48 | 47.80392 | 10.47340 | 30005 ft | 426 kts | 335° |
| 2026-05-04 13:48 | 47.85885 | 10.44082 | 30000 ft | 425 kts | 335° |
| 2026-05-04 13:49 | 47.91380 | 10.40827 | 29996 ft | 425 kts | 335° |
| 2026-05-04 13:49 | 47.96875 | 10.37565 | 30002 ft | 425 kts | 335° |
| 2026-05-04 13:50 | 48.02358 | 10.34281 | 30007 ft | 424 kts | 334° |
| 2026-05-04 13:50 | 48.07799 | 10.31033 | 30018 ft | 424 kts | 335° |
| 2026-05-04 13:51 | 48.13275 | 10.27755 | 30024 ft | 424 kts | 334° |
| 2026-05-04 13:51 | 48.18732 | 10.24453 | 30015 ft | 422 kts | 333° |
| 2026-05-04 13:52 | 48.23654 | 10.19839 | 29976 ft | 421 kts | 317° |
| 2026-05-04 13:52 | 48.25934 | 10.17073 | 29558 ft | 421 kts | 317° |
| 2026-05-04 13:52 | 48.28201 | 10.14313 | 28909 ft | 419 kts | 317° |
| 2026-05-04 13:53 | 48.30457 | 10.11571 | 28394 ft | 414 kts | 317° |
| 2026-05-04 13:53 | 48.32678 | 10.08875 | 27954 ft | 408 kts | 317° |
| 2026-05-04 13:53 | 48.34870 | 10.06211 | 27477 ft | 403 kts | 317° |
| 2026-05-04 13:54 | 48.39180 | 10.00959 | 26575 ft | 395 kts | 317° |
| 2026-05-04 13:54 | 48.41307 | 9.98354 | 26110 ft | 392 kts | 317° |
| 2026-05-04 13:54 | 48.45528 | 9.93210 | 25209 ft | 388 kts | 317° |
| 2026-05-04 13:55 | 48.47615 | 9.90651 | 24761 ft | 386 kts | 317° |
| 2026-05-04 13:55 | 48.52176 | 9.86606 | 24154 ft | 383 kts | 341° |
| 2026-05-04 13:55 | 48.54784 | 9.85833 | 23921 ft | 384 kts | 354° |
| 2026-05-04 13:56 | 48.57429 | 9.85415 | 23685 ft | 379 kts | 343° |
| 2026-05-04 13:56 | 48.59969 | 9.84372 | 23446 ft | 378 kts | 341° |
| 2026-05-04 13:56 | 48.65038 | 9.82338 | 22900 ft | 375 kts | 342° |
| 2026-05-04 13:57 | 48.67522 | 9.81375 | 22640 ft | 374 kts | 342° |
| 2026-05-04 13:57 | 48.70040 | 9.80417 | 22377 ft | 373 kts | 342° |
| 2026-05-04 13:58 | 48.77546 | 9.77536 | 21592 ft | 368 kts | 342° |
| 2026-05-04 13:58 | 48.82495 | 9.75633 | 21085 ft | 366 kts | 342° |
| 2026-05-04 13:58 | 48.84955 | 9.74686 | 20830 ft | 364 kts | 342° |
| 2026-05-04 13:59 | 48.87407 | 9.73747 | 20583 ft | 363 kts | 342° |
| 2026-05-04 13:59 | 48.89852 | 9.72807 | 20336 ft | 361 kts | 342° |
| 2026-05-04 13:59 | 48.94703 | 9.70916 | 19847 ft | 359 kts | 342° |
| 2026-05-04 14:00 | 48.97123 | 9.69989 | 19613 ft | 358 kts | 342° |
| 2026-05-04 14:00 | 49.01937 | 9.68122 | 19136 ft | 356 kts | 342° |
| 2026-05-04 14:00 | 49.04333 | 9.67191 | 18903 ft | 355 kts | 342° |
| 2026-05-04 14:01 | 49.06720 | 9.66269 | 18667 ft | 353 kts | 342° |
| 2026-05-04 14:01 | 49.09096 | 9.65343 | 18434 ft | 352 kts | 342° |
| 2026-05-04 14:01 | 49.13827 | 9.63497 | 17927 ft | 349 kts | 342° |
| 2026-05-04 14:02 | 49.16174 | 9.62579 | 17660 ft | 347 kts | 342° |
| 2026-05-04 14:02 | 49.18509 | 9.61668 | 17394 ft | 346 kts | 342° |
| 2026-05-04 14:02 | 49.20834 | 9.60768 | 17132 ft | 344 kts | 342° |
| 2026-05-04 14:02 | 49.23148 | 9.59860 | 16869 ft | 342 kts | 342° |
| 2026-05-04 14:03 | 49.25449 | 9.58951 | 16606 ft | 341 kts | 342° |
| 2026-05-04 14:03 | 49.27744 | 9.58050 | 16356 ft | 340 kts | 342° |
| 2026-05-04 14:03 | 49.30029 | 9.57159 | 16102 ft | 338 kts | 342° |
| 2026-05-04 14:03 | 49.32305 | 9.56267 | 15854 ft | 337 kts | 342° |
| 2026-05-04 14:04 | 49.36822 | 9.54488 | 15359 ft | 334 kts | 343° |
| 2026-05-04 14:04 | 49.39071 | 9.53600 | 15114 ft | 333 kts | 343° |
| 2026-05-04 14:04 | 49.41314 | 9.52723 | 14867 ft | 332 kts | 343° |
| 2026-05-04 14:05 | 49.45770 | 9.50958 | 14387 ft | 329 kts | 343° |
| 2026-05-04 14:05 | 49.47982 | 9.50091 | 14148 ft | 328 kts | 343° |
| 2026-05-04 14:05 | 49.50159 | 9.49227 | 13915 ft | 327 kts | 343° |
| 2026-05-04 14:06 | 49.52358 | 9.48357 | 13675 ft | 326 kts | 343° |
| 2026-05-04 14:06 | 49.54550 | 9.47494 | 13401 ft | 324 kts | 343° |
| 2026-05-04 14:06 | 49.56731 | 9.46629 | 13134 ft | 323 kts | 343° |
| 2026-05-04 14:06 | 49.58905 | 9.45755 | 12881 ft | 323 kts | 344° |
| 2026-05-04 14:07 | 49.61081 | 9.44879 | 12623 ft | 323 kts | 344° |
| 2026-05-04 14:07 | 49.63235 | 9.43930 | 12359 ft | 321 kts | 336° |
| 2026-05-04 14:07 | 49.65279 | 9.42555 | 12106 ft | 320 kts | 334° |
| 2026-05-04 14:07 | 49.67307 | 9.41141 | 11851 ft | 319 kts | 334° |
| 2026-05-04 14:08 | 49.69331 | 9.39738 | 11596 ft | 319 kts | 334° |
| 2026-05-04 14:08 | 49.71354 | 9.38343 | 11344 ft | 318 kts | 334° |
| 2026-05-04 14:08 | 49.73367 | 9.36955 | 11103 ft | 316 kts | 334° |
| 2026-05-04 14:08 | 49.75375 | 9.35572 | 10999 ft | 316 kts | 334° |
| 2026-05-04 14:09 | 49.79379 | 9.32792 | 10582 ft | 314 kts | 334° |
| 2026-05-04 14:09 | 49.81360 | 9.31414 | 10270 ft | 309 kts | 334° |
| 2026-05-04 14:10 | 49.85237 | 9.28721 | 9641 ft | 302 kts | 334° |
| 2026-05-04 14:10 | 49.87142 | 9.27389 | 9291 ft | 299 kts | 334° |
| 2026-05-04 14:10 | 49.89029 | 9.26057 | 8964 ft | 297 kts | 334° |
| 2026-05-04 14:10 | 49.90903 | 9.24739 | 8650 ft | 294 kts | 334° |
| 2026-05-04 14:11 | 49.92761 | 9.23443 | 8332 ft | 291 kts | 334° |
| 2026-05-04 14:11 | 49.96441 | 9.20888 | 7622 ft | 288 kts | 334° |
| 2026-05-04 14:11 | 49.98264 | 9.19630 | 7297 ft | 285 kts | 334° |
| 2026-05-04 14:12 | 50.00074 | 9.18394 | 6986 ft | 282 kts | 334° |
| 2026-05-04 14:12 | 50.01861 | 9.17170 | 6672 ft | 279 kts | 334° |
| 2026-05-04 14:12 | 50.04983 | 9.13936 | 6030 ft | 266 kts | 300° |
| 2026-05-04 14:13 | 50.05835 | 9.11395 | 5644 ft | 265 kts | 294° |
| 2026-05-04 14:13 | 50.06635 | 9.08816 | 5329 ft | 264 kts | 294° |
| 2026-05-04 14:13 | 50.07434 | 9.06262 | 5040 ft | 261 kts | 294° |
| 2026-05-04 14:13 | 50.08233 | 9.03740 | 4721 ft | 259 kts | 294° |
| 2026-05-04 14:14 | 50.09024 | 9.01221 | 4355 ft | 259 kts | 294° |
| 2026-05-04 14:14 | 50.10129 | 8.95994 | 4004 ft | 248 kts | 284° |
| 2026-05-04 14:14 | 50.10571 | 8.93489 | 4010 ft | 233 kts | 284° |
| 2026-05-04 14:15 | 50.10993 | 8.88766 | 4019 ft | 219 kts | 258° |
| 2026-05-04 14:15 | 50.10135 | 8.84444 | 3791 ft | 197 kts | 249° |
| 2026-05-04 14:16 | 50.09221 | 8.80676 | 3293 ft | 176 kts | 250° |
| 2026-05-04 14:16 | 50.08806 | 8.78917 | 3063 ft | 171 kts | 250° |
| 2026-05-04 14:17 | 50.08011 | 8.75551 | 2622 ft | 165 kts | 250° |
| 2026-05-04 14:17 | 50.07614 | 8.73871 | 2400 ft | 166 kts | 250° |
| 2026-05-04 14:17 | 50.06817 | 8.70502 | 1959 ft | 164 kts | 250° |
| 2026-05-04 14:18 | 50.06432 | 8.68878 | 1736 ft | 154 kts | 251° |
| 2026-05-04 14:18 | 50.05726 | 8.65907 | 1342 ft | 141 kts | 250° |
| 2026-05-04 14:19 | 50.05056 | 8.63081 | 983 ft | 138 kts | 250° |
| 2026-05-04 14:19 | 50.04722 | 8.61671 | 807 ft | 140 kts | 249° |
| 2026-05-04 14:19 | 50.04381 | 8.60243 | 631 ft | 142 kts | 249° |
| 2026-05-04 14:19 | 50.04043 | 8.58822 | 434 ft | 138 kts | 246° |
| 2026-05-04 14:20 | 50.03732 | 8.57516 | 360 ft | 114 kts | 251° |
| 2026-05-04 14:20 | 50.03518 | 8.56612 | 356 ft | 61 kts | 250° |
| 2026-05-04 14:20 | 50.03434 | 8.56140 | 357 ft | 36 kts | 269° |
| 2026-05-04 14:21 | 50.03492 | 8.55526 | 350 ft | 21 kts | 271° |
| 2026-05-04 14:21 | 50.03452 | 8.55302 | 344 ft | 23 kts | 249° |
| 2026-05-04 14:21 | 50.03394 | 8.55061 | 349 ft | 25 kts | 249° |
| 2026-05-04 14:21 | 50.03332 | 8.54801 | 336 ft | 26 kts | 249° |
| 2026-05-04 14:22 | 50.03276 | 8.54562 | 337 ft | 17 kts | 259° |
| 2026-05-04 14:22 | 50.03329 | 8.54472 | 336 ft | 13 kts | 336° |
| 2026-05-04 14:22 | 50.03379 | 8.54442 | 336 ft | 0 kts | 339° |
| 2026-05-04 14:24 | 50.03382 | 8.54441 | 340 ft | 3 kts | 339° |
| 2026-05-04 14:24 | 50.03425 | 8.54417 | 351 ft | 10 kts | 340° |
| 2026-05-04 14:25 | 50.03496 | 8.54376 | 350 ft | 13 kts | 339° |
| 2026-05-04 14:25 | 50.03673 | 8.54385 | 344 ft | 16 kts | 64° |
| 2026-05-04 14:25 | 50.03713 | 8.54549 | 347 ft | 17 kts | 70° |
| 2026-05-04 14:26 | 50.03754 | 8.54719 | 353 ft | 17 kts | 69° |
| 2026-05-04 14:26 | 50.03796 | 8.54897 | 356 ft | 18 kts | 70° |
| 2026-05-04 14:26 | 50.03842 | 8.55088 | 350 ft | 19 kts | 70° |
| 2026-05-04 14:26 | 50.03891 | 8.55292 | 354 ft | 21 kts | 69° |
| 2026-05-04 14:27 | 50.03943 | 8.55509 | 355 ft | 22 kts | 70° |
| 2026-05-04 14:27 | 50.03992 | 8.55717 | 350 ft | 20 kts | 70° |
| 2026-05-04 14:27 | 50.04039 | 8.55914 | 358 ft | 16 kts | 68° |
| 2026-05-04 14:27 | 50.04119 | 8.55956 | 357 ft | 13 kts | 344° |
| 2026-05-04 14:28 | 50.04180 | 8.55921 | 354 ft | 15 kts | 343° |
| 2026-05-04 14:28 | 50.04278 | 8.55959 | 354 ft | 15 kts | 2° |
| 2026-05-04 14:28 | 50.04375 | 8.55914 | 361 ft | 14 kts | 347° |
| 2026-05-04 14:28 | 50.04479 | 8.55935 | 359 ft | 16 kts | 16° |
| 2026-05-04 14:29 | 50.04613 | 8.56211 | 361 ft | 16 kts | 69° |
| 2026-05-04 14:29 | 50.04700 | 8.56543 | 358 ft | 14 kts | 54° |
| 2026-05-04 14:30 | 50.04754 | 8.56613 | 361 ft | 8 kts | 352° |
| 2026-05-04 14:30 | 50.04800 | 8.56588 | 359 ft | 3 kts | 339° |
| 2026-05-04 14:30 | 50.04810 | 8.56583 | 357 ft | 0 kts | 340° |